Time;durP1;ratioP1;P1;durP2;ratioP2;P2;SDS_P1;SDS_P2;PMS_P1;PMS_P2;Temp;Humidity;BMP_temperature;BMP_pressure;BME280_temperature;BME280_humidity;BME280_pressure;Samples;Min_cycle;Max_cycle;Signal;HPM_P1;HPM_P2
2022/08/01 00:00:00;;;;;;;3.65;2.30;;;;;;;18.94;63.04;96106.91;2047952;28;20676;-42
2022/08/01 00:01:02;;;;;;;3.35;2.50;;;;;;;18.93;63.29;96097.38;2056806;28;20050;-42
2022/08/01 00:02:03;;;;;;;3.85;2.33;;;;;;;19.00;63.30;96108.22;2059831;28;20046;-41
2022/08/01 00:03:04;;;;;;;3.95;2.25;;;;;;;18.98;62.79;96099.63;2063258;28;20567;-39
2022/08/01 00:04:05;;;;;;;3.13;2.42;;;;;;;18.96;62.80;96091.03;2048147;29;20051;-43
2022/08/01 00:05:07;;;;;;;3.67;2.45;;;;;;;18.95;63.24;96095.47;2040248;29;20039;-40
2022/08/01 00:06:09;;;;;;;6.72;2.40;;;;;;;18.97;62.60;96097.13;2048045;28;20062;-41
2022/08/01 00:07:10;;;;;;;3.50;2.70;;;;;;;19.04;63.03;96098.31;2047846;29;20054;-42
2022/08/01 00:08:11;;;;;;;4.25;2.58;;;;;;;19.01;63.36;96094.13;2055626;28;20054;-41
2022/08/01 00:09:12;;;;;;;4.18;2.75;;;;;;;19.00;62.96;96097.69;2047681;29;20052;-41
2022/08/01 00:10:14;;;;;;;4.10;2.85;;;;;;;19.00;62.88;96102.97;2047915;28;20062;-41
2022/08/01 00:11:16;;;;;;;5.35;2.65;;;;;;;18.98;63.26;96096.16;2048072;28;20587;-43
2022/08/01 00:12:17;;;;;;;4.25;2.67;;;;;;;19.05;62.90;96099.97;2047431;29;20047;-40
2022/08/01 00:13:18;;;;;;;4.40;2.95;;;;;;;19.02;63.01;96095.78;2047680;28;20055;-41
2022/08/01 00:14:20;;;;;;;5.20;2.50;;;;;;;19.11;62.30;96100.34;2055400;28;20051;-39
2022/08/01 00:15:21;;;;;;;5.50;2.60;;;;;;;19.13;62.74;96097.56;2047851;28;20440;-40
2022/08/01 00:16:22;;;;;;;5.20;2.80;;;;;;;19.11;62.65;96099.47;2048345;28;20058;-44
2022/08/01 00:17:24;;;;;;;4.72;2.60;;;;;;;19.12;62.82;96101.16;2048448;28;20460;-41
2022/08/01 00:18:25;;;;;;;3.70;2.60;;;;;;;19.15;62.63;96101.75;2056011;28;20552;-41
2022/08/01 00:19:26;;;;;;;5.03;2.40;;;;;;;19.22;61.90;96102.13;2057486;28;20039;-41
2022/08/01 00:20:28;;;;;;;4.18;2.67;;;;;;;19.28;61.37;96101.63;2055607;28;20057;-40
2022/08/01 00:21:29;;;;;;;6.70;2.65;;;;;;;19.28;61.13;96098.16;2055541;28;20524;-41
2022/08/01 00:22:31;;;;;;;3.25;2.65;;;;;;;19.29;60.96;96100.63;2055240;28;20515;-40
2022/08/01 00:23:32;;;;;;;3.55;2.30;;;;;;;19.33;61.04;96111.78;2047814;28;20054;-43
2022/08/01 00:24:33;;;;;;;3.38;2.78;;;;;;;19.39;60.59;96108.66;2047509;29;20046;-42
2022/08/01 00:25:35;;;;;;;3.92;2.35;;;;;;;19.33;61.24;96103.88;2047907;28;20051;-39
2022/08/01 00:26:36;;;;;;;5.47;2.58;;;;;;;19.27;61.12;96110.47;2071534;28;20046;-41
2022/08/01 00:27:37;;;;;;;3.80;2.28;;;;;;;19.27;60.98;96101.72;2064035;28;20046;-39
2022/08/01 00:28:39;;;;;;;3.53;2.42;;;;;;;19.30;60.83;96112.00;2055214;28;20059;-41
2022/08/01 00:29:40;;;;;;;4.63;2.35;;;;;;;19.33;60.70;96109.97;2047828;28;20066;-38
2022/08/01 00:30:41;;;;;;;5.05;2.67;;;;;;;19.32;61.07;96110.91;2063686;28;20042;-41
2022/08/01 00:31:42;;;;;;;3.92;2.65;;;;;;;19.30;60.88;96107.59;2063969;28;20062;-41
2022/08/01 00:32:44;;;;;;;5.97;2.50;;;;;;;19.35;60.13;96102.81;2055195;28;20055;-39
2022/08/01 00:33:45;;;;;;;5.38;2.42;;;;;;;19.28;60.88;96103.41;2047423;28;20051;-42
2022/08/01 00:34:46;;;;;;;5.00;2.72;;;;;;;19.21;61.38;96104.84;2039957;28;20406;-41
2022/08/01 00:35:47;;;;;;;5.38;2.72;;;;;;;19.22;60.86;96102.13;2055710;28;20058;-40
2022/08/01 00:36:48;;;;;;;7.80;2.40;;;;;;;19.14;61.57;96109.78;2055416;28;20054;-41
2022/08/01 00:37:51;;;;;;;3.53;2.42;;;;;;;19.12;61.48;96104.63;2040449;29;20066;-41
2022/08/01 00:38:52;;;;;;;4.63;2.30;;;;;;;19.08;61.03;96103.19;2047427;28;20043;-41
2022/08/01 00:39:53;;;;;;;5.93;2.40;;;;;;;19.08;61.47;96097.94;2055719;28;20058;-41
2022/08/01 00:40:55;;;;;;;4.20;2.45;;;;;;;19.13;60.96;96103.66;2055478;28;20051;-40
2022/08/01 00:41:56;;;;;;;3.75;2.58;;;;;;;19.06;61.27;96109.53;2063504;28;20053;-39
2022/08/01 00:42:57;;;;;;;4.43;2.47;;;;;;;19.02;61.52;96106.31;2055556;28;20057;-42
2022/08/01 00:44:01;;;;;;;2.83;2.38;;;;;;;18.99;61.24;96106.56;2055224;28;20057;-40
2022/08/01 00:45:02;;;;;;;3.88;2.50;;;;;;;19.00;61.38;96102.13;2055715;28;20057;-41
2022/08/01 00:46:04;;;;;;;6.43;2.72;;;;;;;18.97;61.63;96103.22;2055963;28;20050;-42
2022/08/01 00:47:05;;;;;;;4.30;2.42;;;;;;;19.02;61.16;96108.13;2041345;29;20071;-40
2022/08/01 00:48:06;;;;;;;4.20;2.55;;;;;;;18.99;61.80;96103.94;2049618;28;20062;-40
2022/08/01 00:49:08;;;;;;;3.80;2.50;;;;;;;18.95;61.83;96097.22;2057352;28;20054;-41
2022/08/01 00:50:09;;;;;;;3.00;2.50;;;;;;;18.90;61.82;96109.94;2057539;28;20058;-41
2022/08/01 00:51:10;;;;;;;4.40;2.45;;;;;;;18.98;61.21;96107.53;2057087;28;20428;-41
2022/08/01 00:52:11;;;;;;;7.18;2.50;;;;;;;18.89;62.17;96101.19;2072853;28;20054;-40
2022/08/01 00:53:13;;;;;;;4.65;2.67;;;;;;;18.91;61.76;96101.06;2061622;28;20043;-40
2022/08/01 00:54:15;;;;;;;4.60;2.55;;;;;;;18.86;61.93;96104.06;2048942;28;20440;-43
2022/08/01 00:55:16;;;;;;;6.75;2.80;;;;;;;18.82;62.41;96101.78;2065375;28;20046;-42
2022/08/01 00:56:17;;;;;;;6.10;2.72;;;;;;;18.79;62.36;96102.88;2049293;28;20051;-40
2022/08/01 00:57:18;;;;;;;6.68;2.60;;;;;;;18.75;62.90;96105.88;2048930;28;20422;-41
2022/08/01 00:58:20;;;;;;;4.10;2.47;;;;;;;18.71;62.58;96099.97;2049120;29;20055;-40
2022/08/01 00:59:21;;;;;;;5.25;2.42;;;;;;;18.77;62.06;96104.78;2049129;28;20473;-41
2022/08/01 01:00:23;;;;;;;4.72;2.80;;;;;;;18.73;62.77;96104.16;2048852;28;20048;-41
2022/08/01 01:01:25;;;;;;;6.47;2.38;;;;;;;18.67;62.60;96104.63;2049573;28;20521;-43
2022/08/01 01:02:26;;;;;;;5.03;2.33;;;;;;;18.64;63.20;96096.16;2049542;28;20505;-44
2022/08/01 01:03:27;;;;;;;3.53;2.35;;;;;;;18.66;62.79;96104.78;2041530;28;20043;-41
2022/08/01 01:04:29;;;;;;;5.40;2.42;;;;;;;18.60;63.22;96100.78;2056858;28;20570;-43
2022/08/01 01:05:32;;;;;;;3.78;2.72;;;;;;;18.55;63.56;96097.72;2049713;28;20054;-43
2022/08/01 01:06:54;;;;;;;4.35;2.80;;;;;;;18.48;63.60;96105.22;2049323;28;20053;-40
2022/08/01 01:07:59;;;;;;;9.50;2.45;;;;;;;18.50;63.15;96098.06;2055152;28;20431;-40
2022/08/01 01:09:27;;;;;;;6.05;2.90;;;;;;;18.52;63.57;96098.78;2049518;28;20059;-43
2022/08/01 01:10:32;;;;;;;4.90;2.55;;;;;;;18.60;62.65;96105.22;2064299;28;20045;-41
2022/08/01 01:11:42;;;;;;;6.95;2.80;;;;;;;18.52;63.07;96104.03;2057419;28;20080;-41
2022/08/01 01:12:58;;;;;;;4.13;2.47;;;;;;;18.50;63.18;96105.94;2042649;29;20059;-40
2022/08/01 01:14:04;;;;;;;6.30;2.50;;;;;;;18.48;63.70;96102.59;2044911;28;20078;-41
2022/08/01 01:15:11;;;;;;;4.75;2.50;;;;;;;18.46;63.19;96098.41;2057458;28;20046;-41
2022/08/01 01:16:14;;;;;;;4.25;2.60;;;;;;;18.38;63.56;96100.78;2056900;28;20054;-40
2022/08/01 01:17:17;;;;;;;4.13;2.40;;;;;;;18.44;63.02;96105.56;2033975;29;20044;-42
2022/08/01 01:18:30;;;;;;;5.50;2.60;;;;;;;18.43;63.09;96103.91;2042438;28;20051;-40
2022/08/01 01:19:33;;;;;;;4.38;2.58;;;;;;;18.40;63.47;96109.41;2057028;28;20054;-42
2022/08/01 01:20:38;;;;;;;3.88;2.72;;;;;;;18.37;63.15;96101.75;2049721;28;20062;-40
2022/08/01 01:21:48;;;;;;;5.47;2.70;;;;;;;18.32;63.54;96103.91;2057885;28;20050;-41
2022/08/01 01:23:07;;;;;;;5.80;2.88;;;;;;;18.29;64.01;96103.16;2058211;28;20046;-41
2022/08/01 01:24:17;;;;;;;4.13;2.83;;;;;;;18.26;63.74;96107.84;2048529;29;20043;-41
2022/08/01 01:25:36;;;;;;;3.35;2.42;;;;;;;18.22;63.71;96101.13;2045483;28;20052;-40
2022/08/01 01:26:43;;;;;;;3.95;2.60;;;;;;;18.16;64.82;96097.16;2054640;28;20051;-40
2022/08/01 01:27:53;;;;;;;5.95;2.55;;;;;;;18.12;64.38;96108.03;2057825;28;20053;-40
2022/08/01 01:29:00;;;;;;;5.07;2.80;;;;;;;18.19;64.06;96109.25;2056784;28;20051;-40
2022/08/01 01:30:01;;;;;;;3.75;2.50;;;;;;;18.19;64.06;96107.44;2049736;28;20099;-41
2022/08/01 01:31:02;;;;;;;5.05;3.03;;;;;;;18.18;63.74;96104.94;2049454;28;20501;-42
2022/08/01 01:32:05;;;;;;;6.05;2.53;;;;;;;18.17;63.45;96108.50;2056925;28;20062;-43
2022/08/01 01:33:07;;;;;;;4.00;2.60;;;;;;;18.11;64.26;96107.19;2057251;28;20077;-41
2022/08/01 01:34:09;;;;;;;4.32;2.50;;;;;;;18.12;64.28;96108.84;2041570;29;20058;-41
2022/08/01 01:35:21;;;;;;;4.13;2.45;;;;;;;18.08;64.66;96104.81;2041256;28;20066;-41
2022/08/01 01:36:22;;;;;;;3.50;2.30;;;;;;;18.07;63.89;96109.22;2050681;28;20102;-40
2022/08/01 01:37:23;;;;;;;3.53;2.80;;;;;;;18.03;64.24;96110.41;2041385;29;20501;-40
2022/08/01 01:38:26;;;;;;;5.10;2.50;;;;;;;18.00;64.81;96113.25;2057796;28;20053;-40
2022/08/01 01:39:28;;;;;;;4.20;2.70;;;;;;;18.08;63.48;96112.69;2056056;28;20046;-43
2022/08/01 01:40:29;;;;;;;4.13;2.42;;;;;;;18.05;63.94;96111.13;2049398;28;20051;-40
2022/08/01 01:41:30;;;;;;;3.53;2.33;;;;;;;18.11;63.89;96107.19;2048323;29;20051;-41
2022/08/01 01:42:31;;;;;;;5.50;2.80;;;;;;;18.05;64.73;96111.13;2048797;29;20430;-40
2022/08/01 01:43:32;;;;;;;4.97;2.60;;;;;;;17.99;64.48;96108.09;2040827;29;20059;-40
2022/08/01 01:44:34;;;;;;;3.53;2.30;;;;;;;18.11;63.82;96109.00;2040669;29;20058;-40
2022/08/01 01:45:35;;;;;;;5.32;2.85;;;;;;;18.10;63.69;96104.69;2033501;29;20441;-39
2022/08/01 01:46:36;;;;;;;5.50;2.40;;;;;;;18.13;63.30;96101.84;2032895;29;20495;-43
2022/08/01 01:47:37;;;;;;;3.38;2.25;;;;;;;18.16;63.11;96104.22;2048874;28;20051;-40
2022/08/01 01:48:38;;;;;;;7.10;2.47;;;;;;;18.16;63.56;96101.59;2073154;28;20049;-40
2022/08/01 01:49:40;;;;;;;3.63;2.33;;;;;;;18.18;63.02;96099.69;2065382;28;20042;-39
2022/08/01 01:50:42;;;;;;;4.72;2.95;;;;;;;18.11;63.79;96096.69;2072490;28;20049;-39
2022/08/01 01:51:44;;;;;;;4.20;2.33;;;;;;;18.07;63.99;96101.34;2056064;28;20054;-45
2022/08/01 01:52:45;;;;;;;4.43;2.75;;;;;;;18.06;63.47;96090.94;2056057;28;20046;-41
2022/08/01 01:53:46;;;;;;;5.03;2.78;;;;;;;18.13;63.48;96099.22;2041355;29;20051;-41
2022/08/01 01:54:49;;;;;;;5.70;2.33;;;;;;;18.10;62.89;96100.28;2040924;29;20047;-41
2022/08/01 01:55:52;;;;;;;4.78;2.55;;;;;;;18.12;63.27;96098.34;2049210;28;20554;-41
2022/08/01 01:56:53;;;;;;;4.63;2.28;;;;;;;18.14;62.98;96098.25;2049385;28;20521;-40
2022/08/01 01:57:54;;;;;;;3.50;2.70;;;;;;;18.14;62.46;96104.31;2048856;28;20055;-41
2022/08/01 01:58:57;;;;;;;3.30;2.58;;;;;;;18.11;63.52;96099.31;2041170;29;20391;-41
2022/08/01 01:59:58;;;;;;;4.28;2.40;;;;;;;18.13;62.53;96105.28;2041086;29;20498;-41
2022/08/01 02:01:01;;;;;;;3.28;2.40;;;;;;;18.07;63.68;96098.72;2033459;29;20052;-39
2022/08/01 02:02:03;;;;;;;3.75;2.78;;;;;;;18.05;62.99;96105.88;2033206;29;20064;-40
2022/08/01 02:03:05;;;;;;;4.45;2.60;;;;;;;18.12;62.74;96102.75;2041310;28;20055;-40
2022/08/01 02:04:06;;;;;;;4.80;2.40;;;;;;;18.14;62.86;96114.84;2048288;29;20059;-40
2022/08/01 02:05:09;;;;;;;3.92;2.53;;;;;;;18.08;62.60;96107.44;2048831;28;20047;-39
2022/08/01 02:06:12;;;;;;;5.65;2.65;;;;;;;18.12;62.07;96108.84;2056675;28;20058;-39
2022/08/01 02:07:19;;;;;;;3.95;2.13;;;;;;;18.05;62.78;96107.66;2057233;28;20046;-44
2022/08/01 02:08:20;;;;;;;3.35;2.30;;;;;;;17.96;63.21;96108.34;2064020;28;20053;-41
2022/08/01 02:09:22;;;;;;;6.57;2.55;;;;;;;17.93;62.96;96106.78;2048965;29;20047;-41
2022/08/01 02:10:23;;;;;;;6.32;2.35;;;;;;;17.98;63.42;96109.06;2040618;29;20048;-39
2022/08/01 02:11:24;;;;;;;5.13;2.50;;;;;;;18.08;61.22;96110.88;2041351;29;20102;-40
2022/08/01 02:12:25;;;;;;;3.72;2.10;;;;;;;17.99;62.91;96102.84;2048779;28;20280;-43
2022/08/01 02:13:26;;;;;;;4.90;2.45;;;;;;;17.95;62.35;96115.38;2041141;29;20130;-39
2022/08/01 02:14:27;;;;;;;4.50;2.30;;;;;;;17.91;62.39;96115.72;2041145;28;20047;-45
2022/08/01 02:15:29;;;;;;;4.20;2.40;;;;;;;17.82;63.55;96112.00;2048757;29;20043;-40
2022/08/01 02:16:34;;;;;;;3.67;2.30;;;;;;;17.85;63.00;96114.41;2048800;29;20043;-40
2022/08/01 02:17:39;;;;;;;3.88;2.25;;;;;;;17.82;63.18;96120.72;2049200;28;20054;-42
2022/08/01 02:18:41;;;;;;;4.00;2.33;;;;;;;17.78;63.53;96121.03;2056708;28;20417;-40
2022/08/01 02:19:42;;;;;;;6.15;2.10;;;;;;;17.78;63.12;96124.50;2048616;29;20050;-41
2022/08/01 02:20:43;;;;;;;5.05;2.35;;;;;;;17.74;62.62;96115.16;2040946;29;20051;-40
2022/08/01 02:21:49;;;;;;;4.47;2.20;;;;;;;17.70;62.95;96120.78;2055988;28;20500;-40
2022/08/01 02:22:53;;;;;;;2.90;2.30;;;;;;;17.64;63.30;96122.03;2048129;29;20066;-39
2022/08/01 02:23:55;;;;;;;4.15;2.30;;;;;;;17.59;63.62;96125.00;2033990;29;20063;-40
2022/08/01 02:25:03;;;;;;;4.88;2.40;;;;;;;17.55;63.41;96123.56;2040907;28;20447;-40
2022/08/01 02:26:09;;;;;;;4.32;2.25;;;;;;;17.50;64.11;96125.66;2049078;28;20461;-41
2022/08/01 02:27:13;;;;;;;5.68;2.45;;;;;;;17.48;63.87;96126.72;2049387;28;20054;-42
2022/08/01 02:28:17;;;;;;;5.90;2.10;;;;;;;17.45;63.64;96122.53;2056323;28;20050;-43
2022/08/01 02:29:23;;;;;;;6.30;2.60;;;;;;;17.42;64.07;96125.38;2056567;28;20053;-42
2022/08/01 02:30:24;;;;;;;2.97;2.45;;;;;;;17.41;64.72;96124.56;2049459;28;20051;-41
2022/08/01 02:31:25;;;;;;;6.20;2.58;;;;;;;17.41;64.19;96127.19;2040810;29;20043;-39
2022/08/01 02:32:38;;;;;;;4.55;2.20;;;;;;;17.37;64.87;96123.13;2032750;29;20534;-40
2022/08/01 02:33:43;;;;;;;2.70;2.20;;;;;;;17.35;64.54;96117.13;2050333;28;20047;-39
2022/08/01 02:34:44;;;;;;;4.07;2.40;;;;;;;17.33;65.14;96121.66;2056012;28;20055;-40
2022/08/01 02:35:49;;;;;;;4.57;2.55;;;;;;;17.32;64.94;96121.75;2048312;28;20461;-41
2022/08/01 02:36:51;;;;;;;3.30;2.30;;;;;;;17.31;64.64;96122.72;2049280;28;20051;-40
2022/08/01 02:37:53;;;;;;;3.60;2.33;;;;;;;17.30;64.68;96123.66;2048504;28;20065;-41
2022/08/01 02:38:56;;;;;;;3.70;2.30;;;;;;;17.28;64.38;96126.38;2041280;29;20514;-41
2022/08/01 02:39:57;;;;;;;3.00;2.05;;;;;;;17.25;65.72;96126.63;2048802;28;20480;-40
2022/08/01 02:41:08;;;;;;;4.03;2.50;;;;;;;17.20;65.71;96131.34;2064040;28;20503;-39
2022/08/01 02:42:09;;;;;;;4.10;2.40;;;;;;;17.16;65.84;96128.13;2041213;29;20052;-41
2022/08/01 02:43:10;;;;;;;4.60;2.60;;;;;;;17.14;65.51;96124.75;2040655;28;20055;-40
2022/08/01 02:44:15;;;;;;;3.72;2.25;;;;;;;17.09;65.68;96121.63;2049020;28;20405;-39
2022/08/01 02:45:18;;;;;;;4.20;2.35;;;;;;;17.08;66.06;96129.59;2057020;28;20054;-42
2022/08/01 02:46:24;;;;;;;4.35;2.60;;;;;;;17.03;66.26;96126.47;2047931;29;20055;-42
2022/08/01 02:47:25;;;;;;;4.95;2.38;;;;;;;16.97;66.27;96125.97;2049052;28;20054;-42
2022/08/01 02:48:26;;;;;;;3.72;2.58;;;;;;;16.97;66.98;96130.34;2056371;28;20054;-39
2022/08/01 02:49:32;;;;;;;4.40;2.60;;;;;;;16.92;66.73;96125.44;2059256;28;20057;-40
2022/08/01 02:50:34;;;;;;;5.70;2.80;;;;;;;16.85;66.96;96118.94;2064764;28;20054;-41
2022/08/01 02:51:35;;;;;;;4.10;2.10;;;;;;;16.81;67.24;96127.97;2048453;28;20055;-41
2022/08/01 02:52:37;;;;;;;5.18;2.83;;;;;;;16.75;67.87;96121.34;2047886;28;20043;-40
2022/08/01 02:53:38;;;;;;;3.25;2.40;;;;;;;16.64;68.57;96130.91;2033644;29;20051;-39
2022/08/01 02:54:40;;;;;;;3.17;2.38;;;;;;;16.59;68.37;96138.25;2048537;28;20051;-42
2022/08/01 02:55:42;;;;;;;5.25;2.58;;;;;;;16.57;68.08;96127.84;2056058;28;20042;-40
2022/08/01 02:56:43;;;;;;;4.72;2.50;;;;;;;16.57;68.74;96138.34;2056509;28;20070;-42
2022/08/01 02:57:45;;;;;;;4.07;2.78;;;;;;;16.57;68.77;96137.50;2040952;29;20047;-40
2022/08/01 02:58:47;;;;;;;5.30;2.40;;;;;;;16.56;69.09;96135.84;2049110;28;20055;-41
2022/08/01 02:59:48;;;;;;;4.85;2.63;;;;;;;16.51;69.15;96142.22;2056721;28;20055;-41
2022/08/01 03:00:50;;;;;;;3.58;2.38;;;;;;;16.50;69.29;96135.31;2048004;29;20039;-42
2022/08/01 03:01:53;;;;;;;3.20;2.70;;;;;;;16.50;68.48;96137.09;2048078;29;20050;-40
2022/08/01 03:02:55;;;;;;;3.85;2.97;;;;;;;16.48;68.39;96139.81;2040749;28;20556;-40
2022/08/01 03:03:56;;;;;;;4.38;2.65;;;;;;;16.45;69.52;96137.41;2040935;29;20055;-41
2022/08/01 03:04:57;;;;;;;4.28;2.53;;;;;;;16.40;69.59;96138.66;2040629;28;20052;-40
2022/08/01 03:05:58;;;;;;;5.60;2.88;;;;;;;16.36;69.64;96143.28;2040602;29;20119;-41
2022/08/01 03:07:00;;;;;;;5.65;2.83;;;;;;;16.34;70.24;96139.94;2040631;29;20059;-39
2022/08/01 03:08:02;;;;;;;5.85;3.03;;;;;;;16.34;70.99;96142.56;2040659;28;20582;-40
2022/08/01 03:09:03;;;;;;;5.68;2.70;;;;;;;16.27;71.02;96130.78;2063618;28;20054;-39
2022/08/01 03:10:05;;;;;;;4.63;2.50;;;;;;;16.24;70.74;96138.88;2047888;29;20047;-39
2022/08/01 03:11:06;;;;;;;4.45;3.08;;;;;;;16.24;71.06;96144.09;2031958;29;20052;-41
2022/08/01 03:12:11;;;;;;;4.80;2.53;;;;;;;16.21;70.92;96139.91;2024877;29;20044;-40
2022/08/01 03:13:13;;;;;;;4.18;2.33;;;;;;;16.29;70.60;96142.84;2048768;28;20055;-41
2022/08/01 03:14:14;;;;;;;3.83;2.75;;;;;;;16.28;70.56;96140.34;2056149;28;20042;-44
2022/08/01 03:15:15;;;;;;;5.97;3.03;;;;;;;16.32;69.33;96136.56;2039980;29;20052;-41
2022/08/01 03:16:16;;;;;;;4.25;2.75;;;;;;;16.32;70.05;96137.41;2032786;29;20048;-42
2022/08/01 03:17:19;;;;;;;4.63;2.50;;;;;;;16.32;70.12;96141.81;2040873;29;20052;-40
2022/08/01 03:18:20;;;;;;;5.30;2.80;;;;;;;16.33;69.19;96140.84;2063922;28;20056;-39
2022/08/01 03:19:22;;;;;;;3.33;2.47;;;;;;;16.35;70.00;96146.84;2048236;29;20055;-41
2022/08/01 03:20:24;;;;;;;4.43;2.70;;;;;;;16.33;68.71;96140.84;2033306;28;20542;-39
2022/08/01 03:21:26;;;;;;;4.53;2.88;;;;;;;16.42;68.58;96150.72;2064140;28;20043;-39
2022/08/01 03:22:27;;;;;;;6.72;2.58;;;;;;;16.48;68.47;96150.31;2040097;29;20054;-41
2022/08/01 03:23:28;;;;;;;4.35;2.60;;;;;;;16.40;68.94;96141.28;2040311;28;20051;-42
2022/08/01 03:24:30;;;;;;;3.60;2.70;;;;;;;16.33;69.89;96146.09;2055460;28;20049;-40
2022/08/01 03:25:32;;;;;;;4.50;2.40;;;;;;;16.30;70.38;96148.94;2040009;29;20533;-42
2022/08/01 03:26:34;;;;;;;6.70;2.75;;;;;;;16.24;69.89;96142.31;2048191;28;20042;-40
2022/08/01 03:27:37;;;;;;;4.72;2.92;;;;;;;16.26;70.19;96150.94;2048338;28;20051;-39
2022/08/01 03:28:38;;;;;;;4.20;2.78;;;;;;;16.22;69.99;96145.97;2048595;29;20523;-39
2022/08/01 03:29:39;;;;;;;7.18;2.80;;;;;;;16.20;70.23;96153.09;2048052;28;20059;-41
2022/08/01 03:30:40;;;;;;;5.47;2.70;;;;;;;16.17;70.36;96148.94;2040159;29;20044;-38
2022/08/01 03:31:43;;;;;;;4.80;3.03;;;;;;;16.16;70.45;96149.03;2040158;29;20043;-40
2022/08/01 03:32:44;;;;;;;5.13;2.50;;;;;;;16.15;69.90;96147.34;2047913;28;20047;-41
2022/08/01 03:33:45;;;;;;;3.63;2.92;;;;;;;16.12;70.32;96151.03;2048009;28;20058;-42
2022/08/01 03:34:46;;;;;;;3.72;2.60;;;;;;;16.10;69.97;96148.50;2055999;28;20050;-40
2022/08/01 03:35:50;;;;;;;3.92;2.50;;;;;;;16.08;70.93;96144.28;2048345;28;20406;-39
2022/08/01 03:37:11;;;;;;;6.82;2.88;;;;;;;16.04;70.14;96153.31;2056099;28;20051;-40
2022/08/01 03:38:12;;;;;;;5.47;2.75;;;;;;;15.99;71.21;96158.84;2040221;29;20055;-39
2022/08/01 03:39:13;;;;;;;5.43;3.03;;;;;;;15.94;71.10;96163.56;2034331;29;20092;-40
2022/08/01 03:40:20;;;;;;;4.25;2.70;;;;;;;15.91;71.22;96161.13;2055409;28;20074;-41
2022/08/01 03:41:21;;;;;;;4.65;2.70;;;;;;;15.91;70.91;96165.53;2056185;28;20062;-40
2022/08/01 03:42:25;;;;;;;6.80;2.75;;;;;;;15.90;71.29;96154.19;2058901;28;20459;-41
2022/08/01 03:43:35;;;;;;;4.72;2.92;;;;;;;15.95;71.03;96159.16;2055703;28;20539;-39
2022/08/01 03:44:38;;;;;;;4.07;2.60;;;;;;;15.98;70.78;96158.94;2056827;28;20089;-40
2022/08/01 03:45:41;;;;;;;4.70;2.60;;;;;;;16.02;70.24;96163.06;2055575;28;20113;-41
2022/08/01 03:46:45;;;;;;;3.72;2.55;;;;;;;16.06;70.23;96167.13;2049201;28;20047;-41
2022/08/01 03:47:46;;;;;;;3.63;2.70;;;;;;;16.14;69.85;96169.25;2048832;28;20051;-40
2022/08/01 03:48:48;;;;;;;5.22;2.75;;;;;;;16.15;70.47;96166.53;2048045;28;20051;-40
2022/08/01 03:49:49;;;;;;;5.40;2.83;;;;;;;16.17;70.40;96162.03;2045819;28;20051;-39
2022/08/01 03:50:51;;;;;;;6.20;3.05;;;;;;;16.17;70.35;96161.16;2040076;28;20044;-41
2022/08/01 03:51:52;;;;;;;6.63;2.80;;;;;;;16.16;70.61;96164.75;2055750;28;20057;-38
2022/08/01 03:52:53;;;;;;;4.68;2.95;;;;;;;16.14;70.82;96161.38;2062978;28;20523;-40
2022/08/01 03:53:54;;;;;;;6.07;2.95;;;;;;;16.11;70.48;96162.44;2048731;28;20520;-39
2022/08/01 03:54:56;;;;;;;3.58;2.75;;;;;;;16.06;71.46;96164.50;2048021;28;20697;-40
2022/08/01 03:55:59;;;;;;;5.00;2.90;;;;;;;16.07;71.60;96164.41;2039699;29;20055;-41
2022/08/01 03:57:01;;;;;;;4.50;3.05;;;;;;;16.02;71.59;96166.50;2048437;28;20043;-42
2022/08/01 03:58:02;;;;;;;4.10;2.83;;;;;;;16.07;71.57;96164.41;2040572;29;20062;-42
2022/08/01 03:59:04;;;;;;;3.92;3.08;;;;;;;16.04;72.11;96164.63;2048609;28;20460;-39
2022/08/01 04:00:08;;;;;;;5.82;3.30;;;;;;;16.03;72.25;96168.16;2065044;28;20054;-39
2022/08/01 04:01:13;;;;;;;4.25;2.83;;;;;;;16.01;70.97;96171.81;2063833;28;20049;-40
2022/08/01 04:02:14;;;;;;;5.18;3.10;;;;;;;16.00;71.63;96172.78;2048344;28;20070;-43
2022/08/01 04:03:16;;;;;;;5.28;2.67;;;;;;;15.97;71.22;96173.81;2055540;28;20058;-39
2022/08/01 04:04:17;;;;;;;4.90;3.10;;;;;;;16.02;71.32;96169.13;2055302;28;20054;-38
2022/08/01 04:05:18;;;;;;;6.45;3.47;;;;;;;16.01;71.78;96174.44;2047858;28;20063;-40
2022/08/01 04:06:20;;;;;;;4.97;2.90;;;;;;;15.98;71.40;96175.50;2047993;28;20043;-40
2022/08/01 04:07:30;;;;;;;4.90;2.80;;;;;;;15.97;71.46;96176.44;2039230;29;20047;-40
2022/08/01 04:08:38;;;;;;;5.13;3.30;;;;;;;15.98;70.79;96179.88;2051358;28;20043;-40
2022/08/01 04:09:40;;;;;;;5.82;3.55;;;;;;;15.99;71.99;96181.59;2064674;28;20046;-40
2022/08/01 04:10:41;;;;;;;4.85;3.20;;;;;;;15.98;71.40;96177.28;2047970;29;20047;-41
2022/08/01 04:11:43;;;;;;;5.53;2.78;;;;;;;15.99;71.76;96178.97;2040706;28;20056;-42
2022/08/01 04:12:44;;;;;;;5.90;3.10;;;;;;;16.00;72.22;96180.63;2039911;29;20448;-39
2022/08/01 04:13:45;;;;;;;4.88;2.90;;;;;;;15.99;71.58;96174.56;2040117;29;20051;-41
2022/08/01 04:14:46;;;;;;;6.65;3.30;;;;;;;16.01;71.14;96177.06;2056411;28;20046;-39
2022/08/01 04:15:47;;;;;;;7.03;3.28;;;;;;;16.04;71.97;96187.38;2063508;28;20042;-39
2022/08/01 04:16:49;;;;;;;3.97;3.10;;;;;;;16.03;71.23;96185.66;2055942;28;20063;-39
2022/08/01 04:17:50;;;;;;;6.45;3.05;;;;;;;16.05;71.55;96182.00;2055892;28;20059;-40
2022/08/01 04:18:51;;;;;;;4.65;2.70;;;;;;;16.06;71.69;96186.31;2055718;28;20050;-41
2022/08/01 04:19:52;;;;;;;4.38;2.83;;;;;;;16.10;70.62;96193.03;2063602;28;20054;-41
2022/08/01 04:20:53;;;;;;;5.28;2.65;;;;;;;16.12;71.26;96181.59;2063950;28;20050;-40
2022/08/01 04:21:55;;;;;;;5.38;3.15;;;;;;;16.15;71.22;96190.13;2057483;28;20066;-49
2022/08/01 04:22:56;;;;;;;6.90;2.75;;;;;;;16.17;70.20;96193.47;2049195;28;20159;-40
2022/08/01 04:23:59;;;;;;;5.22;2.92;;;;;;;16.19;70.81;96191.56;2057699;28;20050;-39
2022/08/01 04:25:02;;;;;;;7.03;3.00;;;;;;;16.22;70.51;96190.53;2057513;28;20113;-40
2022/08/01 04:26:04;;;;;;;7.45;3.22;;;;;;;16.24;70.89;96192.09;2042006;29;20047;-41
2022/08/01 04:27:07;;;;;;;5.57;2.80;;;;;;;16.29;70.28;96189.19;2050524;28;20062;-40
2022/08/01 04:28:10;;;;;;;3.70;2.67;;;;;;;16.34;70.31;96194.13;2065396;28;20124;-41
2022/08/01 04:29:12;;;;;;;5.93;3.13;;;;;;;16.37;70.13;96192.13;2057729;28;20543;-41
2022/08/01 04:30:14;;;;;;;4.10;3.08;;;;;;;16.40;69.53;96191.91;2041788;29;20039;-39
2022/08/01 04:31:16;;;;;;;4.93;2.80;;;;;;;16.44;70.27;96192.53;2042089;28;20051;-40
2022/08/01 04:32:17;;;;;;;5.25;2.97;;;;;;;16.49;69.41;96193.94;2048759;28;20047;-41
2022/08/01 04:33:18;;;;;;;4.75;3.08;;;;;;;16.56;69.50;96196.13;2056775;28;20555;-42
2022/08/01 04:34:21;;;;;;;7.15;2.90;;;;;;;16.59;69.91;96195.91;2041580;29;20051;-40
2022/08/01 04:35:23;;;;;;;3.92;2.60;;;;;;;16.62;69.20;96200.94;2058500;28;20035;-40
2022/08/01 04:36:24;;;;;;;5.88;2.90;;;;;;;16.67;69.18;96204.09;2049124;28;20050;-42
2022/08/01 04:37:25;;;;;;;3.78;2.92;;;;;;;16.68;68.27;96198.78;2041499;29;20437;-40
2022/08/01 04:38:27;;;;;;;6.38;2.90;;;;;;;16.75;68.87;96202.63;2057690;28;20440;-40
2022/08/01 04:39:31;;;;;;;4.65;2.85;;;;;;;16.80;68.20;96202.34;2049721;28;20051;-41
2022/08/01 04:40:32;;;;;;;5.28;3.03;;;;;;;16.85;68.41;96205.50;2042294;28;20047;-43
2022/08/01 04:41:33;;;;;;;8.73;3.10;;;;;;;16.93;68.54;96197.94;2040839;28;20548;-39
2022/08/01 04:42:34;;;;;;;4.45;2.97;;;;;;;16.99;68.24;96199.28;2049404;28;20055;-39
2022/08/01 04:43:36;;;;;;;4.38;2.95;;;;;;;17.06;67.41;96203.19;2049725;28;20044;-40
2022/08/01 04:44:38;;;;;;;5.40;2.83;;;;;;;17.13;67.95;96199.19;2065517;28;20077;-40
2022/08/01 04:45:39;;;;;;;6.75;3.20;;;;;;;17.23;67.51;96195.91;2057200;28;20436;-40
2022/08/01 04:46:40;;;;;;;6.43;2.83;;;;;;;17.27;67.31;96195.59;2049504;28;20051;-44
2022/08/01 04:47:42;;;;;;;5.40;2.75;;;;;;;17.31;67.52;96196.19;2050046;28;20422;-41
2022/08/01 04:48:44;;;;;;;5.32;3.05;;;;;;;17.32;67.78;96201.34;2049635;28;20058;-40
2022/08/01 04:49:45;;;;;;;3.78;3.20;;;;;;;17.33;68.51;96200.41;2046852;28;20043;-40
2022/08/01 04:50:47;;;;;;;5.13;3.00;;;;;;;17.32;67.71;96203.97;2041225;29;20047;-43
2022/08/01 04:51:57;;;;;;;5.05;2.92;;;;;;;17.31;68.44;96198.81;2049324;28;20436;-38
2022/08/01 04:52:58;;;;;;;5.10;2.95;;;;;;;17.34;68.15;96203.84;2049281;29;20062;-41
2022/08/01 04:54:00;;;;;;;5.70;3.05;;;;;;;17.31;67.83;96198.81;2049540;28;20039;-40
2022/08/01 04:55:03;;;;;;;5.60;3.28;;;;;;;17.28;68.54;96210.38;2057030;28;20054;-40